TimeCST,TemperatureF,Dew PointF,Humidity,Sea Level PressureIn,VisibilityMPH,Wind Direction,Wind SpeedMPH,Gust SpeedMPH,PrecipitationIn,Events,Conditions,WindDirDegrees,DateUTC
6:00 AM,74,67,73,29.81,12,WSW,4.6,,,,Clear,250,2014-02-11 12:00:00
6:00 AM,73.4,66.2,78,29.80,-9999.0,WSW,4.6,-,N/A,,Clear,250,2014-02-11 12:00:00
7:00 AM,78.8,66.2,65,29.81,-9999.0,East,10.4,-,N/A,,Clear,90,2014-02-11 13:00:00
8:00 AM,80.6,66.2,61,29.83,-9999.0,North,6.9,-,N/A,,Clear,350,2014-02-11 14:00:00
9:00 AM,88,67,39,29.86,12,East,15.0,,,,Scattered Clouds,90,2014-02-11 15:00:00
9:00 AM,87.8,66.2,49,29.84,6.2,East,15.0,-,N/A,,Partly Cloudy,90,2014-02-11 15:00:00
10:00 AM,87.8,64.4,46,29.84,6.2,East,21.9,33.4,N/A,,Partly Cloudy,80,2014-02-11 16:00:00
11:00 AM,89.6,64.4,43,29.82,6.2,East,18.4,29.9,N/A,,Partly Cloudy,90,2014-02-11 17:00:00
12:00 PM,92,65,31,29.81,12,East,20.7,,,,Scattered Clouds,90,2014-02-11 18:00:00
12:00 PM,91.4,64.4,41,29.79,6.2,East,20.7,32.2,N/A,,Partly Cloudy,90,2014-02-11 18:00:00
1:00 PM,91.4,64.4,41,29.77,6.2,East,21.9,33.4,N/A,,Partly Cloudy,80,2014-02-11 19:00:00
2:00 PM,93.2,64.4,38,29.75,6.2,East,18.4,-,N/A,,Partly Cloudy,90,2014-02-11 20:00:00
3:00 PM,92,65,31,29.74,12,ENE,19.6,,,,Scattered Clouds,70,2014-02-11 21:00:00
3:00 PM,91.4,64.4,41,29.73,6.2,ENE,19.6,31.1,N/A,,Partly Cloudy,70,2014-02-11 21:00:00
4:00 PM,89.6,66.2,46,29.74,6.2,ENE,20.7,32.2,N/A,,Partly Cloudy,60,2014-02-11 22:00:00
5:00 PM,86.0,64.4,48,29.74,6.2,East,18.4,-,N/A,,Partly Cloudy,80,2014-02-11 23:00:00
6:00 PM,84,65,43,29.77,12,East,17.3,,,,,90,2014-02-12 00:00:00
6:00 PM,84.2,64.4,51,29.75,-9999.0,East,17.3,28.8,N/A,,Clear,90,2014-02-12 00:00:00
7:00 PM,82.4,66.2,58,29.78,-9999.0,East,17.3,-,N/A,,Clear,100,2014-02-12 01:00:00
8:00 PM,80.6,66.2,61,29.79,-9999.0,East,17.3,-,N/A,,Clear,90,2014-02-12 02:00:00